CheckWX is a tool to help pilots better visualize weather data.  It is not intended as a substitute for an official pre-flight weather briefing.

03:18:29 UTC

KMSY METAR
Louis Armstrong New Orleans International Airport
New Orleans, Louisiana, USA
Current

25 mins ago

KMSY 270253Z 15005KT 10SM FEW015 FEW250 28/22 A3007 RMK AO2 SLP186 T02780217 53006
Observed
May-27 @ 02:53 UTC
Wind
  • 150° at 5 KTS
Visibility
10 SM
Flight Rules
VFR
Cloud Levels
  • Few at 1,500' AGL
  • Few at 25,000' AGL
Temperature
28°C / 82°F
Dewpoint
22°C / 72°F
Heat Index
30°C / 86°F
Humidity
70%
Altimeter
30.07" Hg
Pressure
1018.32 hPa
Previous

1 hour ago

KMSY 270153Z 15006KT 10SM FEW040 FEW250 29/21 A3005 RMK AO2 SLP180 T02890211
Observed
May-27 @ 01:53 UTC
Wind
  • 150° at 6 KTS
Visibility
10 SM
Flight Rules
VFR
Cloud Levels
  • Few at 4,000' AGL
  • Few at 25,000' AGL
Temperature
29°C / 84°F
Dewpoint
21°C / 70°F
Heat Index
31°C / 88°F
Humidity
62%
Altimeter
30.05" Hg
Pressure
1017.62 hPa
Previous

2 hours ago

KMSY 270053Z 16004KT 10SM FEW035 FEW250 29/22 A3006 RMK AO2 SLP181 T02940217
Observed
May-27 @ 00:53 UTC
Wind
  • 160° at 4 KTS
Visibility
10 SM
Flight Rules
VFR
Cloud Levels
  • Few at 3,500' AGL
  • Few at 25,000' AGL
Temperature
29°C / 84°F
Dewpoint
22°C / 72°F
Heat Index
32°C / 89°F
Humidity
66%
Altimeter
30.06" Hg
Pressure
1017.92 hPa